sensor_id;sensor_type;location;lat;lon;timestamp;temperature;humidity
14301;DHT22;7234;59.306;18.024;2024-01-30T00:00:10;4.60;99.90
14301;DHT22;7234;59.306;18.024;2024-01-30T00:02:37;4.40;99.90
14301;DHT22;7234;59.306;18.024;2024-01-30T00:05:04;4.40;99.90
14301;DHT22;7234;59.306;18.024;2024-01-30T00:07:31;4.40;99.90
14301;DHT22;7234;59.306;18.024;2024-01-30T00:09:58;4.50;99.90
14301;DHT22;7234;59.306;18.024;2024-01-30T00:12:25;4.40;99.90
14301;DHT22;7234;59.306;18.024;2024-01-30T00:14:53;4.40;99.90
14301;DHT22;7234;59.306;18.024;2024-01-30T00:17:21;4.50;99.90
14301;DHT22;7234;59.306;18.024;2024-01-30T00:19:50;4.30;99.90
14301;DHT22;7234;59.306;18.024;2024-01-30T00:22:17;4.30;99.90
14301;DHT22;7234;59.306;18.024;2024-01-30T00:24:44;4.40;99.90
14301;DHT22;7234;59.306;18.024;2024-01-30T00:27:11;4.30;99.90
14301;DHT22;7234;59.306;18.024;2024-01-30T00:29:38;4.40;99.90
14301;DHT22;7234;59.306;18.024;2024-01-30T00:32:06;4.30;99.90
14301;DHT22;7234;59.306;18.024;2024-01-30T00:34:34;4.20;99.90
14301;DHT22;7234;59.306;18.024;2024-01-30T00:37:01;4.20;99.90
14301;DHT22;7234;59.306;18.024;2024-01-30T00:39:30;4.20;99.90
14301;DHT22;7234;59.306;18.024;2024-01-30T00:41:57;4.20;99.90
14301;DHT22;7234;59.306;18.024;2024-01-30T00:44:24;4.10;99.90
14301;DHT22;7234;59.306;18.024;2024-01-30T00:46:51;4.10;99.90
14301;DHT22;7234;59.306;18.024;2024-01-30T00:49:17;4.10;99.90
14301;DHT22;7234;59.306;18.024;2024-01-30T00:51:45;4.20;99.90
14301;DHT22;7234;59.306;18.024;2024-01-30T00:54:13;4.20;99.90
14301;DHT22;7234;59.306;18.024;2024-01-30T00:56:40;4.00;99.90
14301;DHT22;7234;59.306;18.024;2024-01-30T00:59:07;4.00;99.90
14301;DHT22;7234;59.306;18.024;2024-01-30T01:01:34;4.00;99.90
14301;DHT22;7234;59.306;18.024;2024-01-30T01:04:01;4.00;99.90
14301;DHT22;7234;59.306;18.024;2024-01-30T01:06:28;4.00;99.90
14301;DHT22;7234;59.306;18.024;2024-01-30T01:08:56;4.00;99.90
14301;DHT22;7234;59.306;18.024;2024-01-30T01:11:24;4.00;99.90
14301;DHT22;7234;59.306;18.024;2024-01-30T01:13:51;4.10;99.90
14301;DHT22;7234;59.306;18.024;2024-01-30T01:16:18;4.00;99.90
14301;DHT22;7234;59.306;18.024;2024-01-30T01:18:48;4.00;99.90
14301;DHT22;7234;59.306;18.024;2024-01-30T01:21:15;4.00;99.90
14301;DHT22;7234;59.306;18.024;2024-01-30T01:23:42;3.90;99.90
14301;DHT22;7234;59.306;18.024;2024-01-30T01:26:10;3.90;99.90
14301;DHT22;7234;59.306;18.024;2024-01-30T01:28:40;3.90;99.90
14301;DHT22;7234;59.306;18.024;2024-01-30T01:31:07;3.90;99.90
14301;DHT22;7234;59.306;18.024;2024-01-30T01:33:34;3.90;99.90
14301;DHT22;7234;59.306;18.024;2024-01-30T01:36:03;3.90;99.90
14301;DHT22;7234;59.306;18.024;2024-01-30T01:38:32;3.80;99.90
14301;DHT22;7234;59.306;18.024;2024-01-30T01:40:59;3.80;99.90
14301;DHT22;7234;59.306;18.024;2024-01-30T01:43:28;3.80;99.90
14301;DHT22;7234;59.306;18.024;2024-01-30T01:45:55;3.80;99.90
14301;DHT22;7234;59.306;18.024;2024-01-30T01:48:22;3.70;99.90
14301;DHT22;7234;59.306;18.024;2024-01-30T01:50:49;3.70;99.90
14301;DHT22;7234;59.306;18.024;2024-01-30T01:53:17;3.70;99.90
14301;DHT22;7234;59.306;18.024;2024-01-30T01:55:45;3.70;99.90
14301;DHT22;7234;59.306;18.024;2024-01-30T01:58:13;3.60;99.90
14301;DHT22;7234;59.306;18.024;2024-01-30T02:00:42;3.60;99.90
14301;DHT22;7234;59.306;18.024;2024-01-30T02:03:10;3.70;99.90
14301;DHT22;7234;59.306;18.024;2024-01-30T02:05:38;3.60;99.90
14301;DHT22;7234;59.306;18.024;2024-01-30T02:08:06;3.50;99.90
14301;DHT22;7234;59.306;18.024;2024-01-30T02:10:34;3.50;99.90
14301;DHT22;7234;59.306;18.024;2024-01-30T02:13:02;3.40;99.90
14301;DHT22;7234;59.306;18.024;2024-01-30T02:15:30;3.40;99.90
14301;DHT22;7234;59.306;18.024;2024-01-30T02:17:58;3.40;99.90
14301;DHT22;7234;59.306;18.024;2024-01-30T02:20:28;3.40;99.90
14301;DHT22;7234;59.306;18.024;2024-01-30T02:22:58;3.40;99.90
14301;DHT22;7234;59.306;18.024;2024-01-30T02:25:38;3.30;99.90
14301;DHT22;7234;59.306;18.024;2024-01-30T02:28:09;3.40;99.90
14301;DHT22;7234;59.306;18.024;2024-01-30T02:30:37;3.30;99.90
14301;DHT22;7234;59.306;18.024;2024-01-30T02:33:04;3.40;99.90
14301;DHT22;7234;59.306;18.024;2024-01-30T02:35:31;3.30;99.90
14301;DHT22;7234;59.306;18.024;2024-01-30T02:38:00;3.30;99.90
14301;DHT22;7234;59.306;18.024;2024-01-30T02:40:27;3.30;99.90
14301;DHT22;7234;59.306;18.024;2024-01-30T02:42:54;3.40;99.90
14301;DHT22;7234;59.306;18.024;2024-01-30T02:45:21;3.50;99.90
14301;DHT22;7234;59.306;18.024;2024-01-30T02:47:48;3.30;99.90
14301;DHT22;7234;59.306;18.024;2024-01-30T02:50:15;3.30;99.90
14301;DHT22;7234;59.306;18.024;2024-01-30T02:52:42;3.30;99.90
14301;DHT22;7234;59.306;18.024;2024-01-30T02:55:11;3.40;99.90
14301;DHT22;7234;59.306;18.024;2024-01-30T02:57:38;3.20;99.90
14301;DHT22;7234;59.306;18.024;2024-01-30T03:00:06;3.30;99.90
14301;DHT22;7234;59.306;18.024;2024-01-30T03:02:35;3.30;99.90
14301;DHT22;7234;59.306;18.024;2024-01-30T03:05:02;3.20;99.90
14301;DHT22;7234;59.306;18.024;2024-01-30T03:07:30;3.30;99.90
14301;DHT22;7234;59.306;18.024;2024-01-30T03:09:57;3.30;99.90
14301;DHT22;7234;59.306;18.024;2024-01-30T03:12:25;3.40;99.90
14301;DHT22;7234;59.306;18.024;2024-01-30T03:14:52;3.30;99.90
14301;DHT22;7234;59.306;18.024;2024-01-30T03:17:19;3.20;99.90
14301;DHT22;7234;59.306;18.024;2024-01-30T03:19:46;3.20;99.90
14301;DHT22;7234;59.306;18.024;2024-01-30T03:22:13;3.20;99.90
14301;DHT22;7234;59.306;18.024;2024-01-30T03:24:40;3.20;99.90
14301;DHT22;7234;59.306;18.024;2024-01-30T03:27:08;3.20;99.90
14301;DHT22;7234;59.306;18.024;2024-01-30T03:29:36;3.20;99.90
14301;DHT22;7234;59.306;18.024;2024-01-30T03:32:04;3.10;99.90
14301;DHT22;7234;59.306;18.024;2024-01-30T03:34:31;3.10;99.90
14301;DHT22;7234;59.306;18.024;2024-01-30T03:36:58;3.10;99.90
14301;DHT22;7234;59.306;18.024;2024-01-30T03:39:25;3.20;99.90
14301;DHT22;7234;59.306;18.024;2024-01-30T03:41:52;3.20;99.90
14301;DHT22;7234;59.306;18.024;2024-01-30T03:44:19;3.10;99.90
14301;DHT22;7234;59.306;18.024;2024-01-30T03:46:50;3.10;99.90
14301;DHT22;7234;59.306;18.024;2024-01-30T03:49:17;3.10;99.90
14301;DHT22;7234;59.306;18.024;2024-01-30T03:51:45;3.10;99.90
14301;DHT22;7234;59.306;18.024;2024-01-30T03:54:13;3.00;99.90
14301;DHT22;7234;59.306;18.024;2024-01-30T03:56:40;3.00;99.90
14301;DHT22;7234;59.306;18.024;2024-01-30T03:59:07;3.00;99.90
14301;DHT22;7234;59.306;18.024;2024-01-30T04:01:34;3.00;99.90
14301;DHT22;7234;59.306;18.024;2024-01-30T04:04:02;3.00;99.90
14301;DHT22;7234;59.306;18.024;2024-01-30T04:06:29;3.00;99.90
14301;DHT22;7234;59.306;18.024;2024-01-30T04:08:56;2.90;99.90
14301;DHT22;7234;59.306;18.024;2024-01-30T04:11:23;2.90;99.90
14301;DHT22;7234;59.306;18.024;2024-01-30T04:13:50;2.90;99.90
14301;DHT22;7234;59.306;18.024;2024-01-30T04:16:23;2.90;99.90
14301;DHT22;7234;59.306;18.024;2024-01-30T04:18:50;2.90;99.90
14301;DHT22;7234;59.306;18.024;2024-01-30T04:21:20;3.10;99.90
14301;DHT22;7234;59.306;18.024;2024-01-30T04:23:47;3.10;99.90
14301;DHT22;7234;59.306;18.024;2024-01-30T04:26:14;3.00;99.90
14301;DHT22;7234;59.306;18.024;2024-01-30T04:28:41;3.00;99.90
14301;DHT22;7234;59.306;18.024;2024-01-30T04:31:08;2.90;99.90
14301;DHT22;7234;59.306;18.024;2024-01-30T04:33:36;3.00;99.90
14301;DHT22;7234;59.306;18.024;2024-01-30T04:36:03;3.10;99.90
14301;DHT22;7234;59.306;18.024;2024-01-30T04:38:32;3.00;99.90
14301;DHT22;7234;59.306;18.024;2024-01-30T04:40:59;3.00;99.90
14301;DHT22;7234;59.306;18.024;2024-01-30T04:43:26;3.00;99.90
14301;DHT22;7234;59.306;18.024;2024-01-30T04:45:53;3.00;99.90
14301;DHT22;7234;59.306;18.024;2024-01-30T04:48:20;3.00;99.90
14301;DHT22;7234;59.306;18.024;2024-01-30T04:50:47;3.00;99.90
14301;DHT22;7234;59.306;18.024;2024-01-30T04:53:14;3.00;99.90
14301;DHT22;7234;59.306;18.024;2024-01-30T04:55:42;3.10;99.90
14301;DHT22;7234;59.306;18.024;2024-01-30T04:58:09;3.00;99.90
14301;DHT22;7234;59.306;18.024;2024-01-30T05:00:36;3.00;99.90
14301;DHT22;7234;59.306;18.024;2024-01-30T05:03:03;3.10;99.90
14301;DHT22;7234;59.306;18.024;2024-01-30T05:05:30;3.00;99.90
14301;DHT22;7234;59.306;18.024;2024-01-30T05:07:57;3.10;99.90
14301;DHT22;7234;59.306;18.024;2024-01-30T05:10:24;3.00;99.90
14301;DHT22;7234;59.306;18.024;2024-01-30T05:12:53;3.20;99.90
14301;DHT22;7234;59.306;18.024;2024-01-30T05:15:20;3.00;99.90
14301;DHT22;7234;59.306;18.024;2024-01-30T05:17:47;3.00;99.90
14301;DHT22;7234;59.306;18.024;2024-01-30T05:20:14;3.00;99.90
14301;DHT22;7234;59.306;18.024;2024-01-30T05:22:41;2.90;99.90
14301;DHT22;7234;59.306;18.024;2024-01-30T05:25:10;2.90;99.90
14301;DHT22;7234;59.306;18.024;2024-01-30T05:27:38;3.00;99.90
14301;DHT22;7234;59.306;18.024;2024-01-30T05:30:07;2.90;99.90
14301;DHT22;7234;59.306;18.024;2024-01-30T05:32:34;2.80;99.90
14301;DHT22;7234;59.306;18.024;2024-01-30T05:35:01;2.80;99.90
14301;DHT22;7234;59.306;18.024;2024-01-30T05:37:28;2.80;99.90
14301;DHT22;7234;59.306;18.024;2024-01-30T05:39:55;2.80;99.90
14301;DHT22;7234;59.306;18.024;2024-01-30T05:42:23;2.80;99.90
14301;DHT22;7234;59.306;18.024;2024-01-30T05:44:50;2.80;99.90
14301;DHT22;7234;59.306;18.024;2024-01-30T05:47:18;2.80;99.90
14301;DHT22;7234;59.306;18.024;2024-01-30T05:49:45;2.70;99.90
14301;DHT22;7234;59.306;18.024;2024-01-30T05:52:12;2.70;99.90
14301;DHT22;7234;59.306;18.024;2024-01-30T05:54:40;2.70;99.90
14301;DHT22;7234;59.306;18.024;2024-01-30T05:57:07;2.70;99.90
14301;DHT22;7234;59.306;18.024;2024-01-30T05:59:34;2.70;99.90
14301;DHT22;7234;59.306;18.024;2024-01-30T06:02:03;2.60;99.90
14301;DHT22;7234;59.306;18.024;2024-01-30T06:04:32;2.60;99.90
14301;DHT22;7234;59.306;18.024;2024-01-30T06:06:59;2.50;99.90
14301;DHT22;7234;59.306;18.024;2024-01-30T06:09:27;2.50;99.90
14301;DHT22;7234;59.306;18.024;2024-01-30T06:11:55;2.40;99.90
14301;DHT22;7234;59.306;18.024;2024-01-30T06:14:22;2.40;99.90
14301;DHT22;7234;59.306;18.024;2024-01-30T06:16:49;2.30;99.90
14301;DHT22;7234;59.306;18.024;2024-01-30T06:19:16;2.30;99.90
14301;DHT22;7234;59.306;18.024;2024-01-30T06:21:45;2.30;99.90
14301;DHT22;7234;59.306;18.024;2024-01-30T06:24:12;2.30;99.90
14301;DHT22;7234;59.306;18.024;2024-01-30T06:26:39;2.30;99.90
14301;DHT22;7234;59.306;18.024;2024-01-30T06:29:07;2.40;99.90
14301;DHT22;7234;59.306;18.024;2024-01-30T06:31:39;2.30;99.90
14301;DHT22;7234;59.306;18.024;2024-01-30T06:34:07;2.30;99.90
14301;DHT22;7234;59.306;18.024;2024-01-30T06:36:34;2.30;99.90
14301;DHT22;7234;59.306;18.024;2024-01-30T06:39:03;2.30;99.90
14301;DHT22;7234;59.306;18.024;2024-01-30T06:41:31;2.40;99.90
14301;DHT22;7234;59.306;18.024;2024-01-30T06:43:59;2.40;99.90
14301;DHT22;7234;59.306;18.024;2024-01-30T06:46:26;2.50;99.90
14301;DHT22;7234;59.306;18.024;2024-01-30T06:48:53;2.40;99.90
14301;DHT22;7234;59.306;18.024;2024-01-30T06:51:20;2.40;99.90
14301;DHT22;7234;59.306;18.024;2024-01-30T06:53:47;2.40;99.90
14301;DHT22;7234;59.306;18.024;2024-01-30T06:56:16;2.40;99.90
14301;DHT22;7234;59.306;18.024;2024-01-30T06:58:46;2.40;99.90
14301;DHT22;7234;59.306;18.024;2024-01-30T07:01:14;2.40;99.90
14301;DHT22;7234;59.306;18.024;2024-01-30T07:03:41;2.40;99.90
14301;DHT22;7234;59.306;18.024;2024-01-30T07:06:08;2.50;99.90
14301;DHT22;7234;59.306;18.024;2024-01-30T07:08:36;2.50;99.90
14301;DHT22;7234;59.306;18.024;2024-01-30T07:11:04;2.40;99.90
14301;DHT22;7234;59.306;18.024;2024-01-30T07:13:34;2.40;99.90
14301;DHT22;7234;59.306;18.024;2024-01-30T07:16:01;2.40;99.90
14301;DHT22;7234;59.306;18.024;2024-01-30T07:18:28;2.40;99.90
14301;DHT22;7234;59.306;18.024;2024-01-30T07:20:56;2.60;99.90
14301;DHT22;7234;59.306;18.024;2024-01-30T07:23:23;2.40;99.90
14301;DHT22;7234;59.306;18.024;2024-01-30T07:25:50;2.40;99.90
14301;DHT22;7234;59.306;18.024;2024-01-30T07:28:17;2.40;99.90
14301;DHT22;7234;59.306;18.024;2024-01-30T07:30:45;2.40;99.90
14301;DHT22;7234;59.306;18.024;2024-01-30T07:33:13;2.40;99.90
14301;DHT22;7234;59.306;18.024;2024-01-30T07:35:40;2.30;99.90
14301;DHT22;7234;59.306;18.024;2024-01-30T07:38:07;2.30;99.90
14301;DHT22;7234;59.306;18.024;2024-01-30T07:40:34;2.30;99.90
14301;DHT22;7234;59.306;18.024;2024-01-30T07:43:01;2.40;99.90
14301;DHT22;7234;59.306;18.024;2024-01-30T07:45:29;2.40;99.90
14301;DHT22;7234;59.306;18.024;2024-01-30T07:47:59;2.50;99.90
14301;DHT22;7234;59.306;18.024;2024-01-30T07:50:26;2.50;99.90
14301;DHT22;7234;59.306;18.024;2024-01-30T07:52:56;2.50;99.90
14301;DHT22;7234;59.306;18.024;2024-01-30T07:55:34;2.60;99.90
14301;DHT22;7234;59.306;18.024;2024-01-30T07:58:15;2.50;99.90
14301;DHT22;7234;59.306;18.024;2024-01-30T08:00:42;2.50;99.90
14301;DHT22;7234;59.306;18.024;2024-01-30T08:03:11;2.50;99.90
14301;DHT22;7234;59.306;18.024;2024-01-30T08:05:41;2.60;99.90
14301;DHT22;7234;59.306;18.024;2024-01-30T08:08:08;2.60;99.90
14301;DHT22;7234;59.306;18.024;2024-01-30T08:10:36;2.60;99.90
14301;DHT22;7234;59.306;18.024;2024-01-30T08:13:03;2.60;99.90
14301;DHT22;7234;59.306;18.024;2024-01-30T08:15:30;2.60;99.90
14301;DHT22;7234;59.306;18.024;2024-01-30T08:17:58;2.60;99.90
14301;DHT22;7234;59.306;18.024;2024-01-30T08:20:26;2.60;99.90
14301;DHT22;7234;59.306;18.024;2024-01-30T08:22:53;2.60;99.90
14301;DHT22;7234;59.306;18.024;2024-01-30T08:25:20;2.70;99.90
14301;DHT22;7234;59.306;18.024;2024-01-30T08:27:47;2.80;99.90
14301;DHT22;7234;59.306;18.024;2024-01-30T08:30:14;2.70;99.90
14301;DHT22;7234;59.306;18.024;2024-01-30T08:32:41;2.70;99.90
14301;DHT22;7234;59.306;18.024;2024-01-30T08:35:08;2.60;99.90
14301;DHT22;7234;59.306;18.024;2024-01-30T08:37:40;2.60;99.90
14301;DHT22;7234;59.306;18.024;2024-01-30T08:40:08;2.60;99.90
14301;DHT22;7234;59.306;18.024;2024-01-30T08:42:35;2.70;99.90
14301;DHT22;7234;59.306;18.024;2024-01-30T08:45:03;2.70;99.90
14301;DHT22;7234;59.306;18.024;2024-01-30T08:47:30;2.70;99.90
14301;DHT22;7234;59.306;18.024;2024-01-30T08:49:56;2.80;99.90
14301;DHT22;7234;59.306;18.024;2024-01-30T08:52:25;2.80;99.90
14301;DHT22;7234;59.306;18.024;2024-01-30T08:54:54;2.80;99.90
14301;DHT22;7234;59.306;18.024;2024-01-30T08:57:21;2.80;99.90
14301;DHT22;7234;59.306;18.024;2024-01-30T08:59:48;2.90;99.90
14301;DHT22;7234;59.306;18.024;2024-01-30T09:02:15;3.00;99.90
14301;DHT22;7234;59.306;18.024;2024-01-30T09:04:43;3.10;99.90
14301;DHT22;7234;59.306;18.024;2024-01-30T09:07:10;3.00;99.90
14301;DHT22;7234;59.306;18.024;2024-01-30T09:09:39;3.20;99.90
14301;DHT22;7234;59.306;18.024;2024-01-30T09:12:08;3.20;99.90
14301;DHT22;7234;59.306;18.024;2024-01-30T09:14:37;3.10;99.90
14301;DHT22;7234;59.306;18.024;2024-01-30T09:17:04;3.10;99.90
14301;DHT22;7234;59.306;18.024;2024-01-30T09:19:31;3.30;99.90
14301;DHT22;7234;59.306;18.024;2024-01-30T09:21:58;3.20;99.90
14301;DHT22;7234;59.306;18.024;2024-01-30T09:24:26;3.20;99.90
14301;DHT22;7234;59.306;18.024;2024-01-30T09:26:53;3.30;99.90
14301;DHT22;7234;59.306;18.024;2024-01-30T09:29:22;3.30;99.90
14301;DHT22;7234;59.306;18.024;2024-01-30T09:31:49;3.30;99.90
14301;DHT22;7234;59.306;18.024;2024-01-30T09:34:16;3.30;99.90
14301;DHT22;7234;59.306;18.024;2024-01-30T09:36:43;3.30;99.90
14301;DHT22;7234;59.306;18.024;2024-01-30T09:39:10;3.30;99.90
14301;DHT22;7234;59.306;18.024;2024-01-30T09:41:49;3.40;99.90
14301;DHT22;7234;59.306;18.024;2024-01-30T09:44:21;3.50;99.90
14301;DHT22;7234;59.306;18.024;2024-01-30T09:46:50;3.70;99.90
14301;DHT22;7234;59.306;18.024;2024-01-30T09:49:18;3.50;99.90
14301;DHT22;7234;59.306;18.024;2024-01-30T09:51:45;3.60;99.90
14301;DHT22;7234;59.306;18.024;2024-01-30T09:54:14;3.80;99.90
14301;DHT22;7234;59.306;18.024;2024-01-30T09:56:42;3.70;99.90
14301;DHT22;7234;59.306;18.024;2024-01-30T09:59:09;3.80;99.90
14301;DHT22;7234;59.306;18.024;2024-01-30T10:01:39;3.80;99.90
14301;DHT22;7234;59.306;18.024;2024-01-30T10:04:07;3.90;99.90
14301;DHT22;7234;59.306;18.024;2024-01-30T10:06:34;4.00;99.90
14301;DHT22;7234;59.306;18.024;2024-01-30T10:09:02;4.10;99.90
14301;DHT22;7234;59.306;18.024;2024-01-30T10:11:30;4.10;99.90
14301;DHT22;7234;59.306;18.024;2024-01-30T10:13:59;4.10;99.90
14301;DHT22;7234;59.306;18.024;2024-01-30T10:16:27;4.10;99.90
14301;DHT22;7234;59.306;18.024;2024-01-30T10:18:55;4.10;99.90
14301;DHT22;7234;59.306;18.024;2024-01-30T10:21:23;4.10;99.90
14301;DHT22;7234;59.306;18.024;2024-01-30T10:23:50;4.10;99.90
14301;DHT22;7234;59.306;18.024;2024-01-30T10:26:17;4.10;99.90
14301;DHT22;7234;59.306;18.024;2024-01-30T10:28:45;4.20;99.90
14301;DHT22;7234;59.306;18.024;2024-01-30T10:31:16;4.20;99.90
14301;DHT22;7234;59.306;18.024;2024-01-30T10:33:44;4.10;99.90
14301;DHT22;7234;59.306;18.024;2024-01-30T10:36:14;4.10;99.90
14301;DHT22;7234;59.306;18.024;2024-01-30T10:38:42;4.10;99.90
14301;DHT22;7234;59.306;18.024;2024-01-30T10:41:13;4.10;99.90
14301;DHT22;7234;59.306;18.024;2024-01-30T10:43:42;4.20;99.90
14301;DHT22;7234;59.306;18.024;2024-01-30T10:46:17;4.20;99.90
14301;DHT22;7234;59.306;18.024;2024-01-30T10:48:50;4.10;99.90
14301;DHT22;7234;59.306;18.024;2024-01-30T10:51:20;4.10;99.90
14301;DHT22;7234;59.306;18.024;2024-01-30T10:53:49;4.10;99.90
14301;DHT22;7234;59.306;18.024;2024-01-30T10:56:18;4.10;99.90
14301;DHT22;7234;59.306;18.024;2024-01-30T10:58:48;4.20;99.90
14301;DHT22;7234;59.306;18.024;2024-01-30T11:01:16;4.10;99.90
14301;DHT22;7234;59.306;18.024;2024-01-30T11:03:43;4.20;99.90
14301;DHT22;7234;59.306;18.024;2024-01-30T11:06:11;4.30;99.90
14301;DHT22;7234;59.306;18.024;2024-01-30T11:08:41;4.30;99.90
14301;DHT22;7234;59.306;18.024;2024-01-30T11:11:10;4.40;99.90
14301;DHT22;7234;59.306;18.024;2024-01-30T11:13:37;4.50;99.90
14301;DHT22;7234;59.306;18.024;2024-01-30T11:16:05;4.50;99.90
14301;DHT22;7234;59.306;18.024;2024-01-30T11:18:33;4.50;99.90
14301;DHT22;7234;59.306;18.024;2024-01-30T11:21:05;4.60;99.90
14301;DHT22;7234;59.306;18.024;2024-01-30T11:23:34;4.80;99.90
14301;DHT22;7234;59.306;18.024;2024-01-30T11:26:04;4.70;99.90
14301;DHT22;7234;59.306;18.024;2024-01-30T11:28:33;4.90;99.90
14301;DHT22;7234;59.306;18.024;2024-01-30T11:31:05;4.80;99.90
14301;DHT22;7234;59.306;18.024;2024-01-30T11:33:32;4.80;99.90
14301;DHT22;7234;59.306;18.024;2024-01-30T11:36:00;4.80;99.90
14301;DHT22;7234;59.306;18.024;2024-01-30T11:38:28;4.80;99.90
14301;DHT22;7234;59.306;18.024;2024-01-30T11:40:56;4.70;99.90
14301;DHT22;7234;59.306;18.024;2024-01-30T11:43:25;4.80;99.90
14301;DHT22;7234;59.306;18.024;2024-01-30T11:45:51;4.70;99.90
14301;DHT22;7234;59.306;18.024;2024-01-30T11:48:18;4.90;99.90
14301;DHT22;7234;59.306;18.024;2024-01-30T11:50:46;4.90;99.90
14301;DHT22;7234;59.306;18.024;2024-01-30T11:53:13;4.80;99.90
14301;DHT22;7234;59.306;18.024;2024-01-30T11:55:40;4.80;99.90
14301;DHT22;7234;59.306;18.024;2024-01-30T11:58:08;4.80;99.90
14301;DHT22;7234;59.306;18.024;2024-01-30T12:00:37;4.70;99.90
14301;DHT22;7234;59.306;18.024;2024-01-30T12:03:04;4.80;99.90
14301;DHT22;7234;59.306;18.024;2024-01-30T12:05:32;4.80;99.90
14301;DHT22;7234;59.306;18.024;2024-01-30T12:07:59;4.70;99.90
14301;DHT22;7234;59.306;18.024;2024-01-30T12:10:26;4.70;99.90
14301;DHT22;7234;59.306;18.024;2024-01-30T12:12:54;4.70;99.90
14301;DHT22;7234;59.306;18.024;2024-01-30T12:15:22;4.70;99.90
14301;DHT22;7234;59.306;18.024;2024-01-30T12:17:50;4.60;99.90
14301;DHT22;7234;59.306;18.024;2024-01-30T12:20:18;4.60;99.90
14301;DHT22;7234;59.306;18.024;2024-01-30T12:22:47;4.70;99.90
14301;DHT22;7234;59.306;18.024;2024-01-30T12:25:16;4.50;99.90
14301;DHT22;7234;59.306;18.024;2024-01-30T12:27:44;4.50;99.90
14301;DHT22;7234;59.306;18.024;2024-01-30T12:30:13;4.50;99.90
14301;DHT22;7234;59.306;18.024;2024-01-30T12:32:41;4.40;99.90
14301;DHT22;7234;59.306;18.024;2024-01-30T12:35:12;4.40;99.90
14301;DHT22;7234;59.306;18.024;2024-01-30T12:37:40;4.30;99.90
14301;DHT22;7234;59.306;18.024;2024-01-30T12:40:08;4.60;99.90
14301;DHT22;7234;59.306;18.024;2024-01-30T12:42:35;4.40;99.90
14301;DHT22;7234;59.306;18.024;2024-01-30T12:45:03;4.40;99.90
14301;DHT22;7234;59.306;18.024;2024-01-30T12:47:31;4.50;99.90
14301;DHT22;7234;59.306;18.024;2024-01-30T12:49:58;4.40;99.90
14301;DHT22;7234;59.306;18.024;2024-01-30T12:52:27;4.50;99.90
14301;DHT22;7234;59.306;18.024;2024-01-30T12:54:54;4.30;99.90
14301;DHT22;7234;59.306;18.024;2024-01-30T12:57:21;4.30;99.90
14301;DHT22;7234;59.306;18.024;2024-01-30T12:59:49;4.10;99.90
14301;DHT22;7234;59.306;18.024;2024-01-30T13:02:16;4.30;99.90
14301;DHT22;7234;59.306;18.024;2024-01-30T13:04:45;4.30;99.90
14301;DHT22;7234;59.306;18.024;2024-01-30T13:07:12;4.40;99.90
14301;DHT22;7234;59.306;18.024;2024-01-30T13:09:41;4.20;99.90
14301;DHT22;7234;59.306;18.024;2024-01-30T13:12:08;4.20;99.90
14301;DHT22;7234;59.306;18.024;2024-01-30T13:14:35;4.20;99.90
14301;DHT22;7234;59.306;18.024;2024-01-30T13:17:03;4.10;99.90
14301;DHT22;7234;59.306;18.024;2024-01-30T13:19:30;4.10;99.90
14301;DHT22;7234;59.306;18.024;2024-01-30T13:21:57;4.00;99.90
14301;DHT22;7234;59.306;18.024;2024-01-30T13:24:24;4.10;99.90
14301;DHT22;7234;59.306;18.024;2024-01-30T13:26:52;3.90;99.90
14301;DHT22;7234;59.306;18.024;2024-01-30T13:29:19;3.90;99.90
14301;DHT22;7234;59.306;18.024;2024-01-30T13:31:46;4.00;99.90
14301;DHT22;7234;59.306;18.024;2024-01-30T13:34:13;4.00;99.90
14301;DHT22;7234;59.306;18.024;2024-01-30T13:36:40;4.10;99.90
14301;DHT22;7234;59.306;18.024;2024-01-30T13:39:09;4.10;99.90
14301;DHT22;7234;59.306;18.024;2024-01-30T13:41:38;4.00;99.90
14301;DHT22;7234;59.306;18.024;2024-01-30T13:44:06;4.10;99.90
14301;DHT22;7234;59.306;18.024;2024-01-30T13:46:34;4.10;99.90
14301;DHT22;7234;59.306;18.024;2024-01-30T13:49:01;4.10;99.90
14301;DHT22;7234;59.306;18.024;2024-01-30T13:51:28;4.10;99.90
14301;DHT22;7234;59.306;18.024;2024-01-30T13:53:55;4.00;99.90
14301;DHT22;7234;59.306;18.024;2024-01-30T13:56:22;4.10;99.90
14301;DHT22;7234;59.306;18.024;2024-01-30T13:58:50;4.10;99.90
14301;DHT22;7234;59.306;18.024;2024-01-30T14:01:19;4.10;99.90
14301;DHT22;7234;59.306;18.024;2024-01-30T14:03:46;4.10;99.90
14301;DHT22;7234;59.306;18.024;2024-01-30T14:06:13;4.30;99.90
14301;DHT22;7234;59.306;18.024;2024-01-30T14:08:40;4.30;99.90
14301;DHT22;7234;59.306;18.024;2024-01-30T14:11:07;4.10;99.90
14301;DHT22;7234;59.306;18.024;2024-01-30T14:13:35;4.10;99.90
14301;DHT22;7234;59.306;18.024;2024-01-30T14:16:04;3.90;99.90
14301;DHT22;7234;59.306;18.024;2024-01-30T14:18:35;4.10;99.90
14301;DHT22;7234;59.306;18.024;2024-01-30T14:21:02;4.20;99.90
14301;DHT22;7234;59.306;18.024;2024-01-30T14:23:30;4.00;99.90
14301;DHT22;7234;59.306;18.024;2024-01-30T14:25:57;4.10;99.90
14301;DHT22;7234;59.306;18.024;2024-01-30T14:28:24;4.10;99.90
14301;DHT22;7234;59.306;18.024;2024-01-30T14:30:51;4.00;99.90
14301;DHT22;7234;59.306;18.024;2024-01-30T14:33:18;4.00;99.90
14301;DHT22;7234;59.306;18.024;2024-01-30T14:35:46;4.00;99.90
14301;DHT22;7234;59.306;18.024;2024-01-30T14:38:13;4.00;99.90
14301;DHT22;7234;59.306;18.024;2024-01-30T14:40:41;4.00;99.90
14301;DHT22;7234;59.306;18.024;2024-01-30T14:43:08;4.00;99.90
14301;DHT22;7234;59.306;18.024;2024-01-30T14:45:35;4.20;99.90
14301;DHT22;7234;59.306;18.024;2024-01-30T14:48:03;4.20;99.90
14301;DHT22;7234;59.306;18.024;2024-01-30T14:50:30;4.20;99.90
14301;DHT22;7234;59.306;18.024;2024-01-30T14:52:59;4.00;99.90
14301;DHT22;7234;59.306;18.024;2024-01-30T14:55:26;4.00;99.90
14301;DHT22;7234;59.306;18.024;2024-01-30T14:57:53;4.00;99.90
14301;DHT22;7234;59.306;18.024;2024-01-30T15:00:20;3.90;99.90
14301;DHT22;7234;59.306;18.024;2024-01-30T15:02:47;3.90;99.90
14301;DHT22;7234;59.306;18.024;2024-01-30T15:05:15;3.90;99.90
14301;DHT22;7234;59.306;18.024;2024-01-30T15:07:42;3.90;99.90
14301;DHT22;7234;59.306;18.024;2024-01-30T15:10:10;3.90;99.90
14301;DHT22;7234;59.306;18.024;2024-01-30T15:12:38;3.90;99.90
14301;DHT22;7234;59.306;18.024;2024-01-30T15:15:07;3.80;99.90
14301;DHT22;7234;59.306;18.024;2024-01-30T15:17:34;3.90;99.90
14301;DHT22;7234;59.306;18.024;2024-01-30T15:20:02;3.80;99.90
14301;DHT22;7234;59.306;18.024;2024-01-30T15:22:29;3.80;99.90
14301;DHT22;7234;59.306;18.024;2024-01-30T15:24:56;3.80;99.90
14301;DHT22;7234;59.306;18.024;2024-01-30T15:27:26;3.70;99.90
14301;DHT22;7234;59.306;18.024;2024-01-30T15:29:53;3.80;99.90
14301;DHT22;7234;59.306;18.024;2024-01-30T15:32:20;3.80;99.90
14301;DHT22;7234;59.306;18.024;2024-01-30T15:34:47;3.80;99.90
14301;DHT22;7234;59.306;18.024;2024-01-30T15:37:14;3.80;99.90
14301;DHT22;7234;59.306;18.024;2024-01-30T15:39:42;3.80;99.90
14301;DHT22;7234;59.306;18.024;2024-01-30T15:42:09;3.80;99.90
14301;DHT22;7234;59.306;18.024;2024-01-30T15:44:38;3.80;99.90
14301;DHT22;7234;59.306;18.024;2024-01-30T15:47:05;3.80;99.90